sensor_id;sensor_type;location;lat;lon;timestamp;temperature;humidity
37646;DHT22;23489;49.600;6.138;2022-11-04T00:01:13;8.90;99.90
37646;DHT22;23489;49.600;6.138;2022-11-04T00:03:39;8.90;99.90
37646;DHT22;23489;49.600;6.138;2022-11-04T00:06:05;8.80;99.90
37646;DHT22;23489;49.600;6.138;2022-11-04T00:08:30;8.80;99.90
37646;DHT22;23489;49.600;6.138;2022-11-04T00:10:57;8.90;99.90
37646;DHT22;23489;49.600;6.138;2022-11-04T00:13:42;8.90;99.90
37646;DHT22;23489;49.600;6.138;2022-11-04T00:16:09;8.90;99.90
37646;DHT22;23489;49.600;6.138;2022-11-04T00:18:54;9.00;99.90
37646;DHT22;23489;49.600;6.138;2022-11-04T00:21:19;9.00;99.90
37646;DHT22;23489;49.600;6.138;2022-11-04T00:24:04;9.00;99.90
37646;DHT22;23489;49.600;6.138;2022-11-04T00:26:49;9.10;99.90
37646;DHT22;23489;49.600;6.138;2022-11-04T00:29:34;9.10;99.90
37646;DHT22;23489;49.600;6.138;2022-11-04T00:31:59;9.20;99.90
37646;DHT22;23489;49.600;6.138;2022-11-04T00:34:44;9.20;99.90
37646;DHT22;23489;49.600;6.138;2022-11-04T00:37:09;9.20;99.90
37646;DHT22;23489;49.600;6.138;2022-11-04T00:39:35;9.20;99.90
37646;DHT22;23489;49.600;6.138;2022-11-04T00:42:00;9.20;99.90
37646;DHT22;23489;49.600;6.138;2022-11-04T00:44:26;9.20;99.90
37646;DHT22;23489;49.600;6.138;2022-11-04T00:46:51;9.10;99.90
37646;DHT22;23489;49.600;6.138;2022-11-04T00:49:17;9.00;99.90
37646;DHT22;23489;49.600;6.138;2022-11-04T00:51:43;9.00;99.90
37646;DHT22;23489;49.600;6.138;2022-11-04T00:54:08;9.00;99.90
37646;DHT22;23489;49.600;6.138;2022-11-04T00:56:38;9.00;99.90
37646;DHT22;23489;49.600;6.138;2022-11-04T00:59:04;9.00;99.90
37646;DHT22;23489;49.600;6.138;2022-11-04T01:01:30;9.00;99.90
37646;DHT22;23489;49.600;6.138;2022-11-04T01:03:56;9.00;99.90
37646;DHT22;23489;49.600;6.138;2022-11-04T01:06:23;9.00;99.90
37646;DHT22;23489;49.600;6.138;2022-11-04T01:08:54;9.00;99.90
37646;DHT22;23489;49.600;6.138;2022-11-04T01:11:20;9.00;99.90
37646;DHT22;23489;49.600;6.138;2022-11-04T01:13:49;9.00;99.90
37646;DHT22;23489;49.600;6.138;2022-11-04T01:16:15;9.00;99.90
37646;DHT22;23489;49.600;6.138;2022-11-04T01:18:41;9.00;99.90
37646;DHT22;23489;49.600;6.138;2022-11-04T01:21:09;9.00;99.90
37646;DHT22;23489;49.600;6.138;2022-11-04T01:23:35;9.00;99.90
37646;DHT22;23489;49.600;6.138;2022-11-04T01:26:07;9.00;99.90
37646;DHT22;23489;49.600;6.138;2022-11-04T01:28:33;9.00;99.90
37646;DHT22;23489;49.600;6.138;2022-11-04T01:31:04;9.00;99.90
37646;DHT22;23489;49.600;6.138;2022-11-04T01:33:29;9.10;99.90
37646;DHT22;23489;49.600;6.138;2022-11-04T01:35:59;9.10;99.90
37646;DHT22;23489;49.600;6.138;2022-11-04T01:38:25;9.10;99.90
37646;DHT22;23489;49.600;6.138;2022-11-04T01:40:51;9.10;99.90
37646;DHT22;23489;49.600;6.138;2022-11-04T01:43:19;9.10;99.90
37646;DHT22;23489;49.600;6.138;2022-11-04T01:45:55;9.10;99.90
37646;DHT22;23489;49.600;6.138;2022-11-04T01:48:32;9.10;99.90
37646;DHT22;23489;49.600;6.138;2022-11-04T01:50:59;9.10;99.90
37646;DHT22;23489;49.600;6.138;2022-11-04T01:53:35;9.10;99.90
37646;DHT22;23489;49.600;6.138;2022-11-04T01:56:05;9.10;99.90
37646;DHT22;23489;49.600;6.138;2022-11-04T01:58:51;9.10;99.90
37646;DHT22;23489;49.600;6.138;2022-11-04T02:01:18;9.10;99.90
37646;DHT22;23489;49.600;6.138;2022-11-04T02:04:10;9.10;99.90
37646;DHT22;23489;49.600;6.138;2022-11-04T02:07:03;9.10;99.90
37646;DHT22;23489;49.600;6.138;2022-11-04T02:09:31;9.10;99.90
37646;DHT22;23489;49.600;6.138;2022-11-04T02:11:57;9.20;99.90
37646;DHT22;23489;49.600;6.138;2022-11-04T02:14:43;9.20;99.90
37646;DHT22;23489;49.600;6.138;2022-11-04T02:17:28;9.20;99.90
37646;DHT22;23489;49.600;6.138;2022-11-04T02:20:21;9.20;99.90
37646;DHT22;23489;49.600;6.138;2022-11-04T02:25:45;9.20;99.90
37646;DHT22;23489;49.600;6.138;2022-11-04T02:28:26;9.20;99.90
37646;DHT22;23489;49.600;6.138;2022-11-04T02:33:52;9.20;99.90
37646;DHT22;23489;49.600;6.138;2022-11-04T02:38:51;9.20;99.90
37646;DHT22;23489;49.600;6.138;2022-11-04T02:41:41;9.30;99.90
37646;DHT22;23489;49.600;6.138;2022-11-04T02:44:20;9.20;99.90
37646;DHT22;23489;49.600;6.138;2022-11-04T02:47:08;9.30;99.90
37646;DHT22;23489;49.600;6.138;2022-11-04T02:49:45;9.30;99.90
37646;DHT22;23489;49.600;6.138;2022-11-04T02:52:17;9.30;99.90
37646;DHT22;23489;49.600;6.138;2022-11-04T02:54:47;9.30;99.90
37646;DHT22;23489;49.600;6.138;2022-11-04T02:57:21;9.30;99.90
37646;DHT22;23489;49.600;6.138;2022-11-04T02:59:56;9.30;99.90
37646;DHT22;23489;49.600;6.138;2022-11-04T03:02:35;9.30;99.90
37646;DHT22;23489;49.600;6.138;2022-11-04T03:05:03;9.20;99.90
37646;DHT22;23489;49.600;6.138;2022-11-04T03:07:33;9.30;99.90
37646;DHT22;23489;49.600;6.138;2022-11-04T03:10:15;9.30;99.90
37646;DHT22;23489;49.600;6.138;2022-11-04T03:12:57;9.30;99.90
37646;DHT22;23489;49.600;6.138;2022-11-04T03:15:28;9.30;99.90
37646;DHT22;23489;49.600;6.138;2022-11-04T03:17:59;9.20;99.90
37646;DHT22;23489;49.600;6.138;2022-11-04T03:20:27;9.30;99.90
37646;DHT22;23489;49.600;6.138;2022-11-04T03:22:56;9.30;99.90
37646;DHT22;23489;49.600;6.138;2022-11-04T03:25:40;9.20;99.90
37646;DHT22;23489;49.600;6.138;2022-11-04T03:28:28;9.20;99.90
37646;DHT22;23489;49.600;6.138;2022-11-04T03:31:01;9.20;99.90
37646;DHT22;23489;49.600;6.138;2022-11-04T03:33:49;9.20;99.90
37646;DHT22;23489;49.600;6.138;2022-11-04T03:36:15;9.20;99.90
37646;DHT22;23489;49.600;6.138;2022-11-04T03:38:41;9.20;99.90
37646;DHT22;23489;49.600;6.138;2022-11-04T03:41:15;9.20;99.90
37646;DHT22;23489;49.600;6.138;2022-11-04T03:43:42;9.10;99.90
37646;DHT22;23489;49.600;6.138;2022-11-04T03:46:08;9.10;99.90
37646;DHT22;23489;49.600;6.138;2022-11-04T03:48:34;9.10;99.90
37646;DHT22;23489;49.600;6.138;2022-11-04T03:50:59;9.10;99.90
37646;DHT22;23489;49.600;6.138;2022-11-04T03:53:25;9.00;99.90
37646;DHT22;23489;49.600;6.138;2022-11-04T03:58:30;9.00;99.90
37646;DHT22;23489;49.600;6.138;2022-11-04T04:01:06;9.00;99.90
37646;DHT22;23489;49.600;6.138;2022-11-04T04:03:44;9.00;99.90
37646;DHT22;23489;49.600;6.138;2022-11-04T04:06:18;9.00;99.90
37646;DHT22;23489;49.600;6.138;2022-11-04T04:09:24;9.00;99.90
37646;DHT22;23489;49.600;6.138;2022-11-04T04:11:57;8.90;99.90
37646;DHT22;23489;49.600;6.138;2022-11-04T04:14:31;8.90;99.90
37646;DHT22;23489;49.600;6.138;2022-11-04T04:19:54;8.80;99.90
37646;DHT22;23489;49.600;6.138;2022-11-04T04:22:27;8.80;99.90
37646;DHT22;23489;49.600;6.138;2022-11-04T04:24:57;8.80;99.90
37646;DHT22;23489;49.600;6.138;2022-11-04T04:27:44;8.80;99.90
37646;DHT22;23489;49.600;6.138;2022-11-04T04:30:13;8.80;99.90
37646;DHT22;23489;49.600;6.138;2022-11-04T04:35:16;8.80;99.90
37646;DHT22;23489;49.600;6.138;2022-11-04T04:38:05;8.80;99.90
37646;DHT22;23489;49.600;6.138;2022-11-04T04:41:01;8.80;99.90
37646;DHT22;23489;49.600;6.138;2022-11-04T04:43:46;8.70;99.90
37646;DHT22;23489;49.600;6.138;2022-11-04T04:46:31;8.70;99.90
37646;DHT22;23489;49.600;6.138;2022-11-04T04:49:07;8.70;99.90
37646;DHT22;23489;49.600;6.138;2022-11-04T04:51:38;8.80;99.90
37646;DHT22;23489;49.600;6.138;2022-11-04T04:54:05;8.80;99.90
37646;DHT22;23489;49.600;6.138;2022-11-04T04:56:31;8.80;99.90
37646;DHT22;23489;49.600;6.138;2022-11-04T04:58:57;8.80;99.90
37646;DHT22;23489;49.600;6.138;2022-11-04T05:01:23;8.80;99.90
37646;DHT22;23489;49.600;6.138;2022-11-04T05:03:48;8.70;99.90
37646;DHT22;23489;49.600;6.138;2022-11-04T05:06:14;8.70;99.90
37646;DHT22;23489;49.600;6.138;2022-11-04T05:08:39;8.70;99.90
37646;DHT22;23489;49.600;6.138;2022-11-04T05:11:05;8.70;99.90
37646;DHT22;23489;49.600;6.138;2022-11-04T05:13:31;8.70;99.90
37646;DHT22;23489;49.600;6.138;2022-11-04T05:16:03;8.70;99.90
37646;DHT22;23489;49.600;6.138;2022-11-04T05:18:29;8.70;99.90
37646;DHT22;23489;49.600;6.138;2022-11-04T05:20:54;8.70;99.90
37646;DHT22;23489;49.600;6.138;2022-11-04T05:23:20;8.70;99.90
37646;DHT22;23489;49.600;6.138;2022-11-04T05:25:46;8.70;99.90
37646;DHT22;23489;49.600;6.138;2022-11-04T05:28:11;8.70;99.90
37646;DHT22;23489;49.600;6.138;2022-11-04T05:30:37;8.80;99.90
37646;DHT22;23489;49.600;6.138;2022-11-04T05:33:03;8.80;99.90
37646;DHT22;23489;49.600;6.138;2022-11-04T05:35:29;8.80;99.90
37646;DHT22;23489;49.600;6.138;2022-11-04T05:37:55;8.70;99.90
37646;DHT22;23489;49.600;6.138;2022-11-04T05:40:22;8.70;99.90
37646;DHT22;23489;49.600;6.138;2022-11-04T05:42:47;8.80;99.90
37646;DHT22;23489;49.600;6.138;2022-11-04T05:45:13;8.80;99.90
37646;DHT22;23489;49.600;6.138;2022-11-04T05:47:39;8.80;99.90
37646;DHT22;23489;49.600;6.138;2022-11-04T05:50:05;8.80;99.90
37646;DHT22;23489;49.600;6.138;2022-11-04T05:52:31;8.80;99.90
37646;DHT22;23489;49.600;6.138;2022-11-04T05:54:56;8.80;99.90
37646;DHT22;23489;49.600;6.138;2022-11-04T05:57:22;8.90;99.90
37646;DHT22;23489;49.600;6.138;2022-11-04T05:59:48;8.80;99.90
37646;DHT22;23489;49.600;6.138;2022-11-04T06:02:13;8.80;99.90
37646;DHT22;23489;49.600;6.138;2022-11-04T06:04:39;8.80;99.90
37646;DHT22;23489;49.600;6.138;2022-11-04T06:07:05;8.80;99.90
37646;DHT22;23489;49.600;6.138;2022-11-04T06:09:30;8.80;99.90
37646;DHT22;23489;49.600;6.138;2022-11-04T06:12:11;8.80;99.90
37646;DHT22;23489;49.600;6.138;2022-11-04T06:14:39;8.80;99.90
37646;DHT22;23489;49.600;6.138;2022-11-04T06:17:05;8.80;99.90
37646;DHT22;23489;49.600;6.138;2022-11-04T06:19:31;8.70;99.90
37646;DHT22;23489;49.600;6.138;2022-11-04T06:21:56;8.70;99.90
37646;DHT22;23489;49.600;6.138;2022-11-04T06:24:22;8.60;99.90
37646;DHT22;23489;49.600;6.138;2022-11-04T06:26:48;8.60;99.90
37646;DHT22;23489;49.600;6.138;2022-11-04T06:29:13;8.60;99.90
37646;DHT22;23489;49.600;6.138;2022-11-04T06:31:39;8.60;99.90
37646;DHT22;23489;49.600;6.138;2022-11-04T06:34:05;8.60;99.90
37646;DHT22;23489;49.600;6.138;2022-11-04T06:36:30;8.60;99.90
37646;DHT22;23489;49.600;6.138;2022-11-04T06:38:56;8.60;99.90
37646;DHT22;23489;49.600;6.138;2022-11-04T06:41:22;8.60;99.90
37646;DHT22;23489;49.600;6.138;2022-11-04T06:43:47;8.70;99.90
37646;DHT22;23489;49.600;6.138;2022-11-04T06:46:39;8.60;99.90
37646;DHT22;23489;49.600;6.138;2022-11-04T06:49:10;8.60;99.90
37646;DHT22;23489;49.600;6.138;2022-11-04T06:51:36;8.60;99.90
37646;DHT22;23489;49.600;6.138;2022-11-04T06:54:02;8.60;99.90
37646;DHT22;23489;49.600;6.138;2022-11-04T06:56:27;8.70;99.90
37646;DHT22;23489;49.600;6.138;2022-11-04T06:58:54;8.70;99.90
37646;DHT22;23489;49.600;6.138;2022-11-04T07:01:21;8.60;99.90
37646;DHT22;23489;49.600;6.138;2022-11-04T07:03:55;8.60;99.90
37646;DHT22;23489;49.600;6.138;2022-11-04T07:06:22;8.70;99.90
37646;DHT22;23489;49.600;6.138;2022-11-04T07:08:49;8.70;99.90
37646;DHT22;23489;49.600;6.138;2022-11-04T07:11:17;8.70;99.90
37646;DHT22;23489;49.600;6.138;2022-11-04T07:13:42;8.80;99.90
37646;DHT22;23489;49.600;6.138;2022-11-04T07:16:08;8.80;99.90
37646;DHT22;23489;49.600;6.138;2022-11-04T07:18:35;8.80;99.90
37646;DHT22;23489;49.600;6.138;2022-11-04T07:21:00;8.90;99.90
37646;DHT22;23489;49.600;6.138;2022-11-04T07:23:26;8.90;99.90
37646;DHT22;23489;49.600;6.138;2022-11-04T07:25:52;8.90;99.90
37646;DHT22;23489;49.600;6.138;2022-11-04T07:28:19;8.80;99.90
37646;DHT22;23489;49.600;6.138;2022-11-04T07:30:45;8.80;99.90
37646;DHT22;23489;49.600;6.138;2022-11-04T07:33:11;8.80;99.90
37646;DHT22;23489;49.600;6.138;2022-11-04T07:35:36;8.80;99.90
37646;DHT22;23489;49.600;6.138;2022-11-04T07:38:03;8.80;99.90
37646;DHT22;23489;49.600;6.138;2022-11-04T07:40:30;8.80;99.90
37646;DHT22;23489;49.600;6.138;2022-11-04T07:42:59;8.80;99.90
37646;DHT22;23489;49.600;6.138;2022-11-04T07:45:34;8.80;99.90
37646;DHT22;23489;49.600;6.138;2022-11-04T07:47:59;8.80;99.90
37646;DHT22;23489;49.600;6.138;2022-11-04T07:50:25;8.80;99.90
37646;DHT22;23489;49.600;6.138;2022-11-04T07:52:51;8.80;99.90
37646;DHT22;23489;49.600;6.138;2022-11-04T07:55:17;8.90;99.90
37646;DHT22;23489;49.600;6.138;2022-11-04T07:57:46;8.80;99.90
37646;DHT22;23489;49.600;6.138;2022-11-04T08:00:14;8.80;99.90
37646;DHT22;23489;49.600;6.138;2022-11-04T08:02:41;8.80;99.90
37646;DHT22;23489;49.600;6.138;2022-11-04T08:05:09;8.80;99.90
37646;DHT22;23489;49.600;6.138;2022-11-04T08:07:35;8.70;99.90
37646;DHT22;23489;49.600;6.138;2022-11-04T08:10:01;8.80;99.90
37646;DHT22;23489;49.600;6.138;2022-11-04T08:12:26;8.80;99.90
37646;DHT22;23489;49.600;6.138;2022-11-04T08:14:52;8.80;99.90
37646;DHT22;23489;49.600;6.138;2022-11-04T08:17:18;8.80;99.90
37646;DHT22;23489;49.600;6.138;2022-11-04T08:19:43;8.80;99.90
37646;DHT22;23489;49.600;6.138;2022-11-04T08:22:09;8.80;99.90
37646;DHT22;23489;49.600;6.138;2022-11-04T08:24:35;8.80;99.90
37646;DHT22;23489;49.600;6.138;2022-11-04T08:27:01;8.80;99.90
37646;DHT22;23489;49.600;6.138;2022-11-04T08:29:28;8.80;99.90
37646;DHT22;23489;49.600;6.138;2022-11-04T08:31:54;8.80;99.90
37646;DHT22;23489;49.600;6.138;2022-11-04T08:34:20;8.80;99.90
37646;DHT22;23489;49.600;6.138;2022-11-04T08:36:45;8.80;99.90
37646;DHT22;23489;49.600;6.138;2022-11-04T08:39:11;8.80;99.90
37646;DHT22;23489;49.600;6.138;2022-11-04T08:41:40;8.80;99.90
37646;DHT22;23489;49.600;6.138;2022-11-04T08:44:06;8.80;99.90
37646;DHT22;23489;49.600;6.138;2022-11-04T08:46:37;8.80;99.90
37646;DHT22;23489;49.600;6.138;2022-11-04T08:49:04;8.90;99.90
37646;DHT22;23489;49.600;6.138;2022-11-04T08:51:33;8.90;99.90
37646;DHT22;23489;49.600;6.138;2022-11-04T08:53:59;8.90;99.90
37646;DHT22;23489;49.600;6.138;2022-11-04T08:56:27;9.00;99.90
37646;DHT22;23489;49.600;6.138;2022-11-04T08:58:54;9.00;99.90
37646;DHT22;23489;49.600;6.138;2022-11-04T09:01:21;9.00;99.90
37646;DHT22;23489;49.600;6.138;2022-11-04T09:03:48;9.00;99.90
37646;DHT22;23489;49.600;6.138;2022-11-04T09:06:18;9.00;99.90
37646;DHT22;23489;49.600;6.138;2022-11-04T09:08:45;9.00;99.90
37646;DHT22;23489;49.600;6.138;2022-11-04T09:11:12;9.00;99.90
37646;DHT22;23489;49.600;6.138;2022-11-04T09:13:38;9.00;99.90
37646;DHT22;23489;49.600;6.138;2022-11-04T09:16:05;9.00;99.90
37646;DHT22;23489;49.600;6.138;2022-11-04T09:18:30;9.00;99.90
37646;DHT22;23489;49.600;6.138;2022-11-04T09:21:00;9.00;99.90
37646;DHT22;23489;49.600;6.138;2022-11-04T09:23:26;9.00;99.90
37646;DHT22;23489;49.600;6.138;2022-11-04T09:25:52;9.00;99.90
37646;DHT22;23489;49.600;6.138;2022-11-04T09:28:18;8.90;99.90
37646;DHT22;23489;49.600;6.138;2022-11-04T09:30:43;9.10;99.90
37646;DHT22;23489;49.600;6.138;2022-11-04T09:33:09;9.10;99.90
37646;DHT22;23489;49.600;6.138;2022-11-04T09:35:35;9.20;99.90
37646;DHT22;23489;49.600;6.138;2022-11-04T09:38:01;9.20;99.90
37646;DHT22;23489;49.600;6.138;2022-11-04T09:40:27;9.10;99.90
37646;DHT22;23489;49.600;6.138;2022-11-04T09:45:39;9.00;99.90
37646;DHT22;23489;49.600;6.138;2022-11-04T09:48:11;9.00;99.90
37646;DHT22;23489;49.600;6.138;2022-11-04T09:50:47;9.00;99.90
37646;DHT22;23489;49.600;6.138;2022-11-04T09:53:29;9.20;99.90
37646;DHT22;23489;49.600;6.138;2022-11-04T09:56:05;9.20;99.90
37646;DHT22;23489;49.600;6.138;2022-11-04T09:58:37;9.30;99.90
37646;DHT22;23489;49.600;6.138;2022-11-04T10:01:14;9.30;99.90
37646;DHT22;23489;49.600;6.138;2022-11-04T10:04:06;9.40;99.90
37646;DHT22;23489;49.600;6.138;2022-11-04T10:06:50;9.40;99.90
37646;DHT22;23489;49.600;6.138;2022-11-04T10:09:33;9.30;99.90
37646;DHT22;23489;49.600;6.138;2022-11-04T10:17:43;9.50;99.90
37646;DHT22;23489;49.600;6.138;2022-11-04T10:22:56;9.70;99.90
37646;DHT22;23489;49.600;6.138;2022-11-04T10:28:00;9.60;99.90
37646;DHT22;23489;49.600;6.138;2022-11-04T10:30:26;9.60;99.90
37646;DHT22;23489;49.600;6.138;2022-11-04T10:40:41;9.80;99.90
37646;DHT22;23489;49.600;6.138;2022-11-04T10:43:11;9.80;99.90
37646;DHT22;23489;49.600;6.138;2022-11-04T10:48:24;9.90;99.90
37646;DHT22;23489;49.600;6.138;2022-11-04T10:50:57;10.00;99.90
37646;DHT22;23489;49.600;6.138;2022-11-04T10:53:31;10.10;99.90
37646;DHT22;23489;49.600;6.138;2022-11-04T10:56:09;10.30;99.90
37646;DHT22;23489;49.600;6.138;2022-11-04T10:58:38;10.40;99.90
37646;DHT22;23489;49.600;6.138;2022-11-04T11:03:50;10.60;99.90
37646;DHT22;23489;49.600;6.138;2022-11-04T11:08:47;10.40;99.90
37646;DHT22;23489;49.600;6.138;2022-11-04T11:11:13;10.30;99.90
37646;DHT22;23489;49.600;6.138;2022-11-04T11:13:44;10.10;99.90
37646;DHT22;23489;49.600;6.138;2022-11-04T11:16:19;10.00;99.90
37646;DHT22;23489;49.600;6.138;2022-11-04T11:21:45;9.90;99.90
37646;DHT22;23489;49.600;6.138;2022-11-04T11:24:26;9.80;99.90
37646;DHT22;23489;49.600;6.138;2022-11-04T11:26:56;9.80;99.90
37646;DHT22;23489;49.600;6.138;2022-11-04T11:29:28;9.90;99.90
37646;DHT22;23489;49.600;6.138;2022-11-04T11:31:56;9.90;99.90
37646;DHT22;23489;49.600;6.138;2022-11-04T11:34:31;10.00;99.90
37646;DHT22;23489;49.600;6.138;2022-11-04T11:36:58;10.10;99.90
37646;DHT22;23489;49.600;6.138;2022-11-04T11:39:27;10.20;99.90
37646;DHT22;23489;49.600;6.138;2022-11-04T11:44:30;10.50;99.90
37646;DHT22;23489;49.600;6.138;2022-11-04T11:47:04;10.60;99.90
37646;DHT22;23489;49.600;6.138;2022-11-04T11:49:31;10.60;99.90
37646;DHT22;23489;49.600;6.138;2022-11-04T11:57:38;10.70;99.90
37646;DHT22;23489;49.600;6.138;2022-11-04T12:00:11;10.80;99.90
37646;DHT22;23489;49.600;6.138;2022-11-04T12:02:41;10.80;99.90
37646;DHT22;23489;49.600;6.138;2022-11-04T12:05:09;10.90;99.90
37646;DHT22;23489;49.600;6.138;2022-11-04T12:15:53;11.10;99.90
37646;DHT22;23489;49.600;6.138;2022-11-04T12:18:08;11.30;99.90
37646;DHT22;23489;49.600;6.138;2022-11-04T12:30:31;12.00;99.90
37646;DHT22;23489;49.600;6.138;2022-11-04T12:38:09;12.20;99.90
37646;DHT22;23489;49.600;6.138;2022-11-04T12:41:01;12.20;99.90
37646;DHT22;23489;49.600;6.138;2022-11-04T12:43:36;12.10;99.90
37646;DHT22;23489;49.600;6.138;2022-11-04T12:51:33;12.20;99.90
37646;DHT22;23489;49.600;6.138;2022-11-04T12:54:05;12.10;99.90
37646;DHT22;23489;49.600;6.138;2022-11-04T12:56:36;12.20;99.90
37646;DHT22;23489;49.600;6.138;2022-11-04T13:01:51;12.00;99.90
37646;DHT22;23489;49.600;6.138;2022-11-04T13:04:25;11.90;99.90
37646;DHT22;23489;49.600;6.138;2022-11-04T13:10:05;11.40;99.90
37646;DHT22;23489;49.600;6.138;2022-11-04T13:17:11;11.20;99.90
37646;DHT22;23489;49.600;6.138;2022-11-04T13:19:42;11.20;99.90
37646;DHT22;23489;49.600;6.138;2022-11-04T13:22:10;11.30;99.90
37646;DHT22;23489;49.600;6.138;2022-11-04T13:24:39;11.40;99.90
37646;DHT22;23489;49.600;6.138;2022-11-04T13:27:15;11.40;99.90
37646;DHT22;23489;49.600;6.138;2022-11-04T13:29:43;11.40;99.90
37646;DHT22;23489;49.600;6.138;2022-11-04T13:32:27;11.40;99.90
37646;DHT22;23489;49.600;6.138;2022-11-04T13:40:04;11.40;99.90
37646;DHT22;23489;49.600;6.138;2022-11-04T13:44:56;11.30;99.90
37646;DHT22;23489;49.600;6.138;2022-11-04T13:47:35;11.30;99.90
37646;DHT22;23489;49.600;6.138;2022-11-04T13:50:01;11.30;99.90
37646;DHT22;23489;49.600;6.138;2022-11-04T13:52:29;11.20;99.90
37646;DHT22;23489;49.600;6.138;2022-11-04T13:54:59;11.10;99.90
37646;DHT22;23489;49.600;6.138;2022-11-04T13:57:27;11.10;99.90
37646;DHT22;23489;49.600;6.138;2022-11-04T14:16:05;10.90;99.90
37646;DHT22;23489;49.600;6.138;2022-11-04T14:18:32;10.90;99.90
37646;DHT22;23489;49.600;6.138;2022-11-04T14:23:36;10.80;99.90
37646;DHT22;23489;49.600;6.138;2022-11-04T14:26:03;10.80;99.90
37646;DHT22;23489;49.600;6.138;2022-11-04T14:28:29;10.80;99.90
37646;DHT22;23489;49.600;6.138;2022-11-04T14:33:30;10.90;99.90
37646;DHT22;23489;49.600;6.138;2022-11-04T14:38:42;11.00;99.90
37646;DHT22;23489;49.600;6.138;2022-11-04T14:43:42;11.10;99.90
37646;DHT22;23489;49.600;6.138;2022-11-04T14:46:08;11.20;99.90
37646;DHT22;23489;49.600;6.138;2022-11-04T14:48:36;11.10;99.90
37646;DHT22;23489;49.600;6.138;2022-11-04T14:51:05;11.10;99.90
37646;DHT22;23489;49.600;6.138;2022-11-04T14:53:31;11.00;99.90
37646;DHT22;23489;49.600;6.138;2022-11-04T14:56:14;11.00;99.90
37646;DHT22;23489;49.600;6.138;2022-11-04T14:58:50;10.90;99.90
37646;DHT22;23489;49.600;6.138;2022-11-04T15:01:16;10.90;99.90
37646;DHT22;23489;49.600;6.138;2022-11-04T15:03:43;10.80;99.90
37646;DHT22;23489;49.600;6.138;2022-11-04T15:06:10;10.80;99.90
37646;DHT22;23489;49.600;6.138;2022-11-04T15:11:13;10.60;99.90
37646;DHT22;23489;49.600;6.138;2022-11-04T15:13:43;10.60;99.90
37646;DHT22;23489;49.600;6.138;2022-11-04T15:16:09;10.60;99.90
37646;DHT22;23489;49.600;6.138;2022-11-04T15:18:37;10.50;99.90
37646;DHT22;23489;49.600;6.138;2022-11-04T15:21:05;10.50;99.90
37646;DHT22;23489;49.600;6.138;2022-11-04T15:23:35;10.50;99.90
37646;DHT22;23489;49.600;6.138;2022-11-04T15:26:04;10.50;99.90
37646;DHT22;23489;49.600;6.138;2022-11-04T15:28:33;10.50;99.90
37646;DHT22;23489;49.600;6.138;2022-11-04T15:33:25;10.60;99.90
37646;DHT22;23489;49.600;6.138;2022-11-04T15:35:52;10.60;99.90
37646;DHT22;23489;49.600;6.138;2022-11-04T15:38:18;10.50;99.90
37646;DHT22;23489;49.600;6.138;2022-11-04T15:40:43;10.50;99.90
37646;DHT22;23489;49.600;6.138;2022-11-04T15:43:10;10.50;99.90
37646;DHT22;23489;49.600;6.138;2022-11-04T15:45:36;10.50;99.90
37646;DHT22;23489;49.600;6.138;2022-11-04T15:50:50;10.40;99.90
37646;DHT22;23489;49.600;6.138;2022-11-04T15:53:16;10.40;99.90
37646;DHT22;23489;49.600;6.138;2022-11-04T15:55:43;10.30;99.90
37646;DHT22;23489;49.600;6.138;2022-11-04T15:58:11;10.30;99.90
37646;DHT22;23489;49.600;6.138;2022-11-04T16:00:38;10.30;99.90
37646;DHT22;23489;49.600;6.138;2022-11-04T16:03:03;10.30;99.90
37646;DHT22;23489;49.600;6.138;2022-11-04T16:05:33;10.30;99.90
37646;DHT22;23489;49.600;6.138;2022-11-04T16:08:18;10.30;99.90
37646;DHT22;23489;49.600;6.138;2022-11-04T16:10:44;10.20;99.90
37646;DHT22;23489;49.600;6.138;2022-11-04T16:15:39;10.20;99.90
37646;DHT22;23489;49.600;6.138;2022-11-04T16:18:05;10.10;99.90
37646;DHT22;23489;49.600;6.138;2022-11-04T16:20:32;10.10;99.90
37646;DHT22;23489;49.600;6.138;2022-11-04T16:22:59;10.00;99.90
37646;DHT22;23489;49.600;6.138;2022-11-04T16:25:27;10.00;99.90
37646;DHT22;23489;49.600;6.138;2022-11-04T16:27:53;10.00;99.90
37646;DHT22;23489;49.600;6.138;2022-11-04T16:30:20;10.10;99.90
37646;DHT22;23489;49.600;6.138;2022-11-04T16:33:05;10.10;99.90
37646;DHT22;23489;49.600;6.138;2022-11-04T16:35:34;10.00;99.90
37646;DHT22;23489;49.600;6.138;2022-11-04T16:38:00;9.90;99.90
37646;DHT22;23489;49.600;6.138;2022-11-04T16:40:25;9.80;99.90
37646;DHT22;23489;49.600;6.138;2022-11-04T16:42:51;9.80;99.90
37646;DHT22;23489;49.600;6.138;2022-11-04T16:45:24;9.80;99.90
37646;DHT22;23489;49.600;6.138;2022-11-04T16:47:51;9.80;99.90
37646;DHT22;23489;49.600;6.138;2022-11-04T16:50:17;9.80;99.90
37646;DHT22;23489;49.600;6.138;2022-11-04T16:52:43;9.70;99.90
37646;DHT22;23489;49.600;6.138;2022-11-04T16:55:09;9.70;99.90
37646;DHT22;23489;49.600;6.138;2022-11-04T16:57:35;9.80;99.90
37646;DHT22;23489;49.600;6.138;2022-11-04T17:00:01;9.80;99.90
37646;DHT22;23489;49.600;6.138;2022-11-04T17:02:28;9.80;99.90
37646;DHT22;23489;49.600;6.138;2022-11-04T17:04:57;9.80;99.90
37646;DHT22;23489;49.600;6.138;2022-11-04T17:07:23;9.80;99.90
37646;DHT22;23489;49.600;6.138;2022-11-04T17:09:48;9.80;99.90
37646;DHT22;23489;49.600;6.138;2022-11-04T17:12:14;9.80;99.90
37646;DHT22;23489;49.600;6.138;2022-11-04T17:14:39;9.80;99.90
37646;DHT22;23489;49.600;6.138;2022-11-04T17:17:05;9.70;99.90
37646;DHT22;23489;49.600;6.138;2022-11-04T17:19:32;9.70;99.90
37646;DHT22;23489;49.600;6.138;2022-11-04T17:21:58;9.70;99.90
37646;DHT22;23489;49.600;6.138;2022-11-04T17:24:26;9.60;99.90
37646;DHT22;23489;49.600;6.138;2022-11-04T17:26:52;9.60;99.90
37646;DHT22;23489;49.600;6.138;2022-11-04T17:29:18;9.60;99.90
37646;DHT22;23489;49.600;6.138;2022-11-04T17:31:43;9.60;99.90
37646;DHT22;23489;49.600;6.138;2022-11-04T17:34:10;9.60;99.90
37646;DHT22;23489;49.600;6.138;2022-11-04T17:36:35;9.60;99.90
37646;DHT22;23489;49.600;6.138;2022-11-04T17:39:01;9.50;99.90
37646;DHT22;23489;49.600;6.138;2022-11-04T17:41:27;9.50;99.90
37646;DHT22;23489;49.600;6.138;2022-11-04T17:44:11;9.50;99.90
37646;DHT22;23489;49.600;6.138;2022-11-04T17:46:37;9.40;99.90
37646;DHT22;23489;49.600;6.138;2022-11-04T17:49:14;9.40;99.90
37646;DHT22;23489;49.600;6.138;2022-11-04T17:51:42;9.30;99.90
37646;DHT22;23489;49.600;6.138;2022-11-04T17:54:09;9.30;99.90
37646;DHT22;23489;49.600;6.138;2022-11-04T17:56:35;9.20;99.90
37646;DHT22;23489;49.600;6.138;2022-11-04T17:59:01;9.20;99.90
37646;DHT22;23489;49.600;6.138;2022-11-04T18:01:29;9.20;99.90
37646;DHT22;23489;49.600;6.138;2022-11-04T18:03:55;9.20;99.90
37646;DHT22;23489;49.600;6.138;2022-11-04T18:06:23;9.20;99.90
37646;DHT22;23489;49.600;6.138;2022-11-04T18:08:51;9.20;99.90
37646;DHT22;23489;49.600;6.138;2022-11-04T18:11:18;9.20;99.90
37646;DHT22;23489;49.600;6.138;2022-11-04T18:14:02;9.20;99.90
37646;DHT22;23489;49.600;6.138;2022-11-04T18:16:27;9.20;99.90
37646;DHT22;23489;49.600;6.138;2022-11-04T18:18:53;9.30;99.90